עמוד ראשי
METAR-TAF:

METAR-TAF

שדות תעופה :

אסדת קידוח

Sleipner, נורבגיה

קו רוחב: 58-22-00N, קו אורך: 001-54-25E, גובה: 50מטר

תצפית מזג אוויר נוכחית

הדו"ח נערך לפני 45דקות, בשעה 22:20 UTC
רוח 11קשר מכיוון צפון
טמפרטורת 10 צלסיוס
לחות 93%
לחץ 1017 hPa
ראות: 4400מטר
אד,

METAR: ENSL 182220Z AUTO 35011KT 4400 BR BKN002/// 10/09 Q1017 W08/S2

זמן: 01:05 (23:05 UTC)


TAF: חסר

תצפיות ותחזיות מזג אוויר לגבי יותר מ- 4,000 שדות תעופה ברחבי העולם. דוחות METAR ו- TAF.

התחנות הזמינות מסומנות בנקודות צהובות ואדומות על גבי המפה.

העבר את העכבר לנקודה הצבעונית על מנת לראות את שם התחנה.

לאחר מכן, לחץ כדי לראות את תוכן ואת תחזיות מזג האוויר.

כדי לשנות את המפה: לחץ על הכפתורים הירוקים עם הפלוס השחור כדי להתקרב; על הכפתור הירוק עם המקף כדי להתרחק; או בחיצים הירוקים למפות סמוכות.


METAR-TAF: